sensor_id;sensor_type;location;lat;lon;timestamp;P1;durP1;ratioP1;P2;durP2;ratioP2
80123;SDS011;69433;48.642;9.142;2024-01-15T00:04:36;17.63;;;12.95;;
80123;SDS011;69433;48.642;9.142;2024-01-15T00:12:37;15.35;;;11.98;;
80123;SDS011;69433;48.642;9.142;2024-01-15T00:15:04;15.18;;;11.60;;
80123;SDS011;69433;48.642;9.142;2024-01-15T00:17:30;15.40;;;11.68;;
80123;SDS011;69433;48.642;9.142;2024-01-15T00:19:55;15.35;;;11.57;;
80123;SDS011;69433;48.642;9.142;2024-01-15T00:22:20;14.43;;;11.30;;
80123;SDS011;69433;48.642;9.142;2024-01-15T00:24:46;15.25;;;11.43;;
80123;SDS011;69433;48.642;9.142;2024-01-15T00:27:11;15.38;;;11.60;;
80123;SDS011;69433;48.642;9.142;2024-01-15T00:32:16;14.50;;;11.20;;
80123;SDS011;69433;48.642;9.142;2024-01-15T00:34:51;16.25;;;11.48;;
80123;SDS011;69433;48.642;9.142;2024-01-15T00:37:21;14.45;;;10.88;;
80123;SDS011;69433;48.642;9.142;2024-01-15T00:42:37;14.32;;;11.23;;
80123;SDS011;69433;48.642;9.142;2024-01-15T00:45:02;13.55;;;10.63;;
80123;SDS011;69433;48.642;9.142;2024-01-15T00:47:34;14.48;;;10.40;;
80123;SDS011;69433;48.642;9.142;2024-01-15T00:50:01;13.35;;;10.65;;
80123;SDS011;69433;48.642;9.142;2024-01-15T00:52:42;15.65;;;10.75;;
80123;SDS011;69433;48.642;9.142;2024-01-15T00:55:22;18.02;;;11.05;;
80123;SDS011;69433;48.642;9.142;2024-01-15T01:05:31;14.05;;;10.07;;
80123;SDS011;69433;48.642;9.142;2024-01-15T01:08:07;12.48;;;10.18;;
80123;SDS011;69433;48.642;9.142;2024-01-15T01:10:32;12.45;;;9.65;;
80123;SDS011;69433;48.642;9.142;2024-01-15T01:13:15;13.15;;;10.27;;
80123;SDS011;69433;48.642;9.142;2024-01-15T01:15:46;13.13;;;9.32;;
80123;SDS011;69433;48.642;9.142;2024-01-15T01:18:19;14.07;;;9.95;;
80123;SDS011;69433;48.642;9.142;2024-01-15T01:20:44;13.70;;;10.45;;
80123;SDS011;69433;48.642;9.142;2024-01-15T01:23:09;12.40;;;9.55;;
80123;SDS011;69433;48.642;9.142;2024-01-15T01:25:53;14.93;;;10.13;;
80123;SDS011;69433;48.642;9.142;2024-01-15T01:31:11;13.57;;;8.88;;
80123;SDS011;69433;48.642;9.142;2024-01-15T01:33:39;12.90;;;9.75;;
80123;SDS011;69433;48.642;9.142;2024-01-15T01:36:08;12.00;;;9.40;;
80123;SDS011;69433;48.642;9.142;2024-01-15T01:38:34;11.40;;;8.95;;
80123;SDS011;69433;48.642;9.142;2024-01-15T01:41:07;15.77;;;10.13;;
80123;SDS011;69433;48.642;9.142;2024-01-15T01:46:22;11.77;;;8.70;;
80123;SDS011;69433;48.642;9.142;2024-01-15T01:55:46;13.02;;;9.27;;
80123;SDS011;69433;48.642;9.142;2024-01-15T01:58:18;11.82;;;8.23;;
80123;SDS011;69433;48.642;9.142;2024-01-15T02:01:02;12.45;;;8.35;;
80123;SDS011;69433;48.642;9.142;2024-01-15T02:03:46;11.15;;;8.50;;
80123;SDS011;69433;48.642;9.142;2024-01-15T02:06:15;9.77;;;8.00;;
80123;SDS011;69433;48.642;9.142;2024-01-15T02:08:50;10.73;;;7.88;;
80123;SDS011;69433;48.642;9.142;2024-01-15T02:11:30;9.35;;;7.43;;
80123;SDS011;69433;48.642;9.142;2024-01-15T02:13:58;11.93;;;8.48;;
80123;SDS011;69433;48.642;9.142;2024-01-15T02:16:29;10.80;;;7.93;;
80123;SDS011;69433;48.642;9.142;2024-01-15T02:18:54;9.73;;;7.47;;
80123;SDS011;69433;48.642;9.142;2024-01-15T02:24:10;10.15;;;7.45;;
80123;SDS011;69433;48.642;9.142;2024-01-15T02:26:36;9.80;;;7.18;;
80123;SDS011;69433;48.642;9.142;2024-01-15T02:29:03;10.75;;;8.15;;
80123;SDS011;69433;48.642;9.142;2024-01-15T02:31:39;9.73;;;8.02;;
80123;SDS011;69433;48.642;9.142;2024-01-15T02:34:04;10.20;;;7.10;;
80123;SDS011;69433;48.642;9.142;2024-01-15T02:36:42;10.43;;;7.47;;
80123;SDS011;69433;48.642;9.142;2024-01-15T02:39:23;11.50;;;7.93;;
80123;SDS011;69433;48.642;9.142;2024-01-15T02:41:48;10.13;;;8.23;;
80123;SDS011;69433;48.642;9.142;2024-01-15T02:44:14;9.65;;;7.70;;
80123;SDS011;69433;48.642;9.142;2024-01-15T02:49:08;10.25;;;7.88;;
80123;SDS011;69433;48.642;9.142;2024-01-15T02:51:50;10.65;;;8.05;;
80123;SDS011;69433;48.642;9.142;2024-01-15T02:54:27;9.60;;;7.30;;
80123;SDS011;69433;48.642;9.142;2024-01-15T02:56:52;9.05;;;6.90;;
80123;SDS011;69433;48.642;9.142;2024-01-15T02:59:19;9.90;;;7.68;;
80123;SDS011;69433;48.642;9.142;2024-01-15T03:04:47;9.98;;;7.45;;
80123;SDS011;69433;48.642;9.142;2024-01-15T03:07:12;9.77;;;7.60;;
80123;SDS011;69433;48.642;9.142;2024-01-15T03:09:38;9.63;;;7.30;;
80123;SDS011;69433;48.642;9.142;2024-01-15T03:12:15;8.60;;;6.63;;
80123;SDS011;69433;48.642;9.142;2024-01-15T03:14:49;8.75;;;6.47;;
80123;SDS011;69433;48.642;9.142;2024-01-15T03:17:17;9.48;;;7.57;;
80123;SDS011;69433;48.642;9.142;2024-01-15T03:19:49;10.30;;;7.85;;
80123;SDS011;69433;48.642;9.142;2024-01-15T03:22:15;9.10;;;6.35;;
80123;SDS011;69433;48.642;9.142;2024-01-15T03:24:42;10.02;;;7.00;;
80123;SDS011;69433;48.642;9.142;2024-01-15T03:27:07;8.77;;;7.00;;
80123;SDS011;69433;48.642;9.142;2024-01-15T03:29:32;9.90;;;7.30;;
80123;SDS011;69433;48.642;9.142;2024-01-15T03:35:10;9.40;;;6.93;;
80123;SDS011;69433;48.642;9.142;2024-01-15T03:37:36;9.30;;;6.93;;
80123;SDS011;69433;48.642;9.142;2024-01-15T03:40:08;8.52;;;6.53;;
80123;SDS011;69433;48.642;9.142;2024-01-15T03:42:46;8.98;;;6.55;;
80123;SDS011;69433;48.642;9.142;2024-01-15T03:45:22;9.07;;;7.20;;
80123;SDS011;69433;48.642;9.142;2024-01-15T03:48:05;8.82;;;6.70;;
80123;SDS011;69433;48.642;9.142;2024-01-15T03:52:56;10.10;;;6.37;;
80123;SDS011;69433;48.642;9.142;2024-01-15T03:58:17;9.85;;;7.05;;
80123;SDS011;69433;48.642;9.142;2024-01-15T04:00:43;9.10;;;6.93;;
80123;SDS011;69433;48.642;9.142;2024-01-15T04:03:08;8.02;;;5.55;;
80123;SDS011;69433;48.642;9.142;2024-01-15T04:05:36;8.77;;;5.88;;
80123;SDS011;69433;48.642;9.142;2024-01-15T04:13:24;12.07;;;6.70;;
80123;SDS011;69433;48.642;9.142;2024-01-15T04:15:59;8.50;;;5.88;;
80123;SDS011;69433;48.642;9.142;2024-01-15T04:18:25;8.85;;;5.65;;
80123;SDS011;69433;48.642;9.142;2024-01-15T04:21:06;8.43;;;5.93;;
80123;SDS011;69433;48.642;9.142;2024-01-15T04:23:32;8.98;;;5.47;;
80123;SDS011;69433;48.642;9.142;2024-01-15T04:26:01;8.52;;;6.10;;
80123;SDS011;69433;48.642;9.142;2024-01-15T04:28:33;11.23;;;5.80;;
80123;SDS011;69433;48.642;9.142;2024-01-15T04:31:07;10.68;;;6.70;;
80123;SDS011;69433;48.642;9.142;2024-01-15T04:33:32;7.18;;;5.03;;
80123;SDS011;69433;48.642;9.142;2024-01-15T04:36:11;7.15;;;5.00;;
80123;SDS011;69433;48.642;9.142;2024-01-15T04:38:42;7.80;;;4.80;;
80123;SDS011;69433;48.642;9.142;2024-01-15T04:43:43;7.65;;;4.70;;
80123;SDS011;69433;48.642;9.142;2024-01-15T04:49:11;9.98;;;5.53;;
80123;SDS011;69433;48.642;9.142;2024-01-15T04:57:42;9.45;;;4.93;;
80123;SDS011;69433;48.642;9.142;2024-01-15T05:00:21;7.97;;;5.03;;
80123;SDS011;69433;48.642;9.142;2024-01-15T05:02:54;7.28;;;5.10;;
80123;SDS011;69433;48.642;9.142;2024-01-15T05:05:21;6.97;;;4.60;;
80123;SDS011;69433;48.642;9.142;2024-01-15T05:11:06;6.03;;;4.20;;
80123;SDS011;69433;48.642;9.142;2024-01-15T05:13:43;6.60;;;4.80;;
80123;SDS011;69433;48.642;9.142;2024-01-15T05:16:09;7.03;;;5.35;;
80123;SDS011;69433;48.642;9.142;2024-01-15T05:18:45;8.27;;;4.45;;
80123;SDS011;69433;48.642;9.142;2024-01-15T05:21:26;7.95;;;5.30;;
80123;SDS011;69433;48.642;9.142;2024-01-15T05:23:58;8.15;;;5.30;;
80123;SDS011;69433;48.642;9.142;2024-01-15T05:29:16;7.10;;;4.82;;
80123;SDS011;69433;48.642;9.142;2024-01-15T05:31:46;8.18;;;5.07;;
80123;SDS011;69433;48.642;9.142;2024-01-15T05:34:17;6.97;;;4.88;;
80123;SDS011;69433;48.642;9.142;2024-01-15T05:36:42;12.88;;;4.47;;
80123;SDS011;69433;48.642;9.142;2024-01-15T05:39:15;7.35;;;4.50;;
80123;SDS011;69433;48.642;9.142;2024-01-15T05:41:41;8.05;;;4.63;;
80123;SDS011;69433;48.642;9.142;2024-01-15T05:44:21;7.55;;;4.07;;
80123;SDS011;69433;48.642;9.142;2024-01-15T05:49:23;9.88;;;4.75;;
80123;SDS011;69433;48.642;9.142;2024-01-15T05:57:56;7.45;;;4.38;;
80123;SDS011;69433;48.642;9.142;2024-01-15T06:00:23;9.85;;;4.40;;
80123;SDS011;69433;48.642;9.142;2024-01-15T06:09:09;7.28;;;4.85;;
80123;SDS011;69433;48.642;9.142;2024-01-15T06:11:45;8.00;;;4.28;;
80123;SDS011;69433;48.642;9.142;2024-01-15T06:14:21;9.40;;;4.68;;
80123;SDS011;69433;48.642;9.142;2024-01-15T06:16:46;5.60;;;3.85;;
80123;SDS011;69433;48.642;9.142;2024-01-15T06:22:31;5.78;;;3.83;;
80123;SDS011;69433;48.642;9.142;2024-01-15T06:30:04;5.22;;;3.80;;
80123;SDS011;69433;48.642;9.142;2024-01-15T06:32:30;6.00;;;3.78;;
80123;SDS011;69433;48.642;9.142;2024-01-15T06:38:17;5.97;;;4.22;;
80123;SDS011;69433;48.642;9.142;2024-01-15T06:40:42;8.68;;;4.40;;
80123;SDS011;69433;48.642;9.142;2024-01-15T06:43:24;5.32;;;3.60;;
80123;SDS011;69433;48.642;9.142;2024-01-15T06:48:30;4.67;;;3.70;;
80123;SDS011;69433;48.642;9.142;2024-01-15T06:50:57;6.10;;;4.20;;
80123;SDS011;69433;48.642;9.142;2024-01-15T06:53:24;5.25;;;3.60;;
80123;SDS011;69433;48.642;9.142;2024-01-15T06:55:50;5.13;;;3.47;;
80123;SDS011;69433;48.642;9.142;2024-01-15T06:58:16;5.68;;;4.30;;
80123;SDS011;69433;48.642;9.142;2024-01-15T07:00:53;5.53;;;3.85;;
80123;SDS011;69433;48.642;9.142;2024-01-15T07:03:19;6.40;;;4.25;;
80123;SDS011;69433;48.642;9.142;2024-01-15T07:06:00;5.68;;;3.90;;
80123;SDS011;69433;48.642;9.142;2024-01-15T07:14:18;5.43;;;3.90;;
80123;SDS011;69433;48.642;9.142;2024-01-15T07:16:43;5.47;;;3.67;;
80123;SDS011;69433;48.642;9.142;2024-01-15T07:19:09;5.75;;;4.78;;
80123;SDS011;69433;48.642;9.142;2024-01-15T07:21:35;5.47;;;3.40;;
80123;SDS011;69433;48.642;9.142;2024-01-15T07:24:00;5.05;;;3.85;;
80123;SDS011;69433;48.642;9.142;2024-01-15T07:26:39;5.70;;;3.45;;
80123;SDS011;69433;48.642;9.142;2024-01-15T07:29:16;5.85;;;3.65;;
80123;SDS011;69433;48.642;9.142;2024-01-15T07:34:40;4.90;;;3.42;;
80123;SDS011;69433;48.642;9.142;2024-01-15T07:37:12;6.18;;;3.53;;
80123;SDS011;69433;48.642;9.142;2024-01-15T07:39:39;5.78;;;3.42;;
80123;SDS011;69433;48.642;9.142;2024-01-15T07:42:04;5.63;;;3.40;;
80123;SDS011;69433;48.642;9.142;2024-01-15T07:44:30;6.70;;;3.92;;
80123;SDS011;69433;48.642;9.142;2024-01-15T07:47:03;5.72;;;3.95;;
80123;SDS011;69433;48.642;9.142;2024-01-15T07:49:29;4.90;;;3.33;;
80123;SDS011;69433;48.642;9.142;2024-01-15T07:51:55;5.15;;;3.70;;
80123;SDS011;69433;48.642;9.142;2024-01-15T07:54:22;4.40;;;3.35;;
80123;SDS011;69433;48.642;9.142;2024-01-15T07:57:01;4.80;;;3.50;;
80123;SDS011;69433;48.642;9.142;2024-01-15T07:59:30;5.50;;;3.25;;
80123;SDS011;69433;48.642;9.142;2024-01-15T08:02:09;5.90;;;3.78;;
80123;SDS011;69433;48.642;9.142;2024-01-15T08:04:36;4.57;;;3.00;;
80123;SDS011;69433;48.642;9.142;2024-01-15T08:07:02;6.00;;;4.05;;
80123;SDS011;69433;48.642;9.142;2024-01-15T08:14:35;5.15;;;3.20;;
80123;SDS011;69433;48.642;9.142;2024-01-15T08:17:09;5.45;;;3.33;;
80123;SDS011;69433;48.642;9.142;2024-01-15T08:19:39;5.93;;;3.60;;
80123;SDS011;69433;48.642;9.142;2024-01-15T08:22:12;5.45;;;3.38;;
80123;SDS011;69433;48.642;9.142;2024-01-15T08:24:41;5.55;;;3.22;;
80123;SDS011;69433;48.642;9.142;2024-01-15T08:27:13;7.28;;;3.63;;
80123;SDS011;69433;48.642;9.142;2024-01-15T08:29:38;6.55;;;3.50;;
80123;SDS011;69433;48.642;9.142;2024-01-15T08:32:12;6.47;;;3.50;;
80123;SDS011;69433;48.642;9.142;2024-01-15T08:34:40;12.32;;;4.43;;
80123;SDS011;69433;48.642;9.142;2024-01-15T08:37:05;11.73;;;4.38;;
80123;SDS011;69433;48.642;9.142;2024-01-15T08:39:31;11.85;;;3.90;;
80123;SDS011;69433;48.642;9.142;2024-01-15T08:41:56;21.75;;;5.93;;
80123;SDS011;69433;48.642;9.142;2024-01-15T08:44:21;21.50;;;7.25;;
80123;SDS011;69433;48.642;9.142;2024-01-15T08:46:46;16.13;;;5.80;;
80123;SDS011;69433;48.642;9.142;2024-01-15T08:49:23;14.68;;;5.43;;
80123;SDS011;69433;48.642;9.142;2024-01-15T08:51:55;16.48;;;7.07;;
80123;SDS011;69433;48.642;9.142;2024-01-15T08:54:20;19.00;;;6.63;;
80123;SDS011;69433;48.642;9.142;2024-01-15T08:56:47;12.65;;;5.03;;
80123;SDS011;69433;48.642;9.142;2024-01-15T08:59:19;11.13;;;5.25;;
80123;SDS011;69433;48.642;9.142;2024-01-15T09:01:52;10.63;;;4.20;;
80123;SDS011;69433;48.642;9.142;2024-01-15T09:04:18;12.80;;;4.85;;
80123;SDS011;69433;48.642;9.142;2024-01-15T09:06:58;10.18;;;3.95;;
80123;SDS011;69433;48.642;9.142;2024-01-15T09:09:35;14.35;;;4.20;;
80123;SDS011;69433;48.642;9.142;2024-01-15T09:12:18;8.52;;;4.40;;
80123;SDS011;69433;48.642;9.142;2024-01-15T09:17:31;7.70;;;4.38;;
80123;SDS011;69433;48.642;9.142;2024-01-15T09:19:57;7.95;;;3.85;;
80123;SDS011;69433;48.642;9.142;2024-01-15T09:22:23;8.68;;;3.97;;
80123;SDS011;69433;48.642;9.142;2024-01-15T09:24:50;8.88;;;4.07;;
80123;SDS011;69433;48.642;9.142;2024-01-15T09:27:21;11.02;;;4.03;;
80123;SDS011;69433;48.642;9.142;2024-01-15T09:29:47;7.32;;;3.35;;
80123;SDS011;69433;48.642;9.142;2024-01-15T09:32:12;8.90;;;4.38;;
80123;SDS011;69433;48.642;9.142;2024-01-15T09:34:53;12.30;;;4.95;;
80123;SDS011;69433;48.642;9.142;2024-01-15T09:37:21;10.30;;;3.80;;
80123;SDS011;69433;48.642;9.142;2024-01-15T09:39:46;9.75;;;3.60;;
80123;SDS011;69433;48.642;9.142;2024-01-15T09:42:13;7.68;;;3.90;;
80123;SDS011;69433;48.642;9.142;2024-01-15T09:44:45;8.70;;;3.55;;
80123;SDS011;69433;48.642;9.142;2024-01-15T09:47:13;12.23;;;4.05;;
80123;SDS011;69433;48.642;9.142;2024-01-15T09:49:41;8.13;;;4.03;;
80123;SDS011;69433;48.642;9.142;2024-01-15T09:52:09;10.77;;;3.70;;
80123;SDS011;69433;48.642;9.142;2024-01-15T09:54:37;8.18;;;3.80;;
80123;SDS011;69433;48.642;9.142;2024-01-15T09:57:04;10.18;;;3.63;;
80123;SDS011;69433;48.642;9.142;2024-01-15T09:59:36;6.15;;;3.15;;
80123;SDS011;69433;48.642;9.142;2024-01-15T10:02:03;9.98;;;3.58;;
80123;SDS011;69433;48.642;9.142;2024-01-15T10:04:44;8.82;;;4.35;;
80123;SDS011;69433;48.642;9.142;2024-01-15T10:07:16;8.07;;;3.47;;
80123;SDS011;69433;48.642;9.142;2024-01-15T10:09:43;6.90;;;3.65;;
80123;SDS011;69433;48.642;9.142;2024-01-15T10:12:10;7.32;;;3.38;;
80123;SDS011;69433;48.642;9.142;2024-01-15T10:14:42;7.97;;;3.03;;
80123;SDS011;69433;48.642;9.142;2024-01-15T10:25:25;5.65;;;3.08;;
80123;SDS011;69433;48.642;9.142;2024-01-15T10:33:23;6.10;;;2.88;;
80123;SDS011;69433;48.642;9.142;2024-01-15T10:38:43;9.18;;;3.15;;
80123;SDS011;69433;48.642;9.142;2024-01-15T10:41:11;6.22;;;3.33;;
80123;SDS011;69433;48.642;9.142;2024-01-15T10:46:27;4.88;;;3.08;;
80123;SDS011;69433;48.642;9.142;2024-01-15T10:49:05;7.10;;;3.22;;
80123;SDS011;69433;48.642;9.142;2024-01-15T10:51:31;6.70;;;3.30;;
80123;SDS011;69433;48.642;9.142;2024-01-15T10:53:59;5.88;;;3.20;;
80123;SDS011;69433;48.642;9.142;2024-01-15T10:56:38;6.75;;;3.40;;
80123;SDS011;69433;48.642;9.142;2024-01-15T10:59:04;6.47;;;3.22;;
80123;SDS011;69433;48.642;9.142;2024-01-15T11:01:34;5.43;;;3.15;;
80123;SDS011;69433;48.642;9.142;2024-01-15T11:04:02;5.80;;;3.20;;
80123;SDS011;69433;48.642;9.142;2024-01-15T11:06:27;6.93;;;3.33;;
80123;SDS011;69433;48.642;9.142;2024-01-15T11:09:05;4.60;;;3.17;;
80123;SDS011;69433;48.642;9.142;2024-01-15T11:11:39;4.25;;;3.05;;
80123;SDS011;69433;48.642;9.142;2024-01-15T11:14:05;5.35;;;3.00;;
80123;SDS011;69433;48.642;9.142;2024-01-15T11:19:25;5.03;;;3.10;;
80123;SDS011;69433;48.642;9.142;2024-01-15T11:21:52;7.95;;;3.15;;
80123;SDS011;69433;48.642;9.142;2024-01-15T11:24:34;5.03;;;2.95;;
80123;SDS011;69433;48.642;9.142;2024-01-15T11:27:07;7.50;;;3.92;;
80123;SDS011;69433;48.642;9.142;2024-01-15T11:29:40;4.25;;;2.92;;
80123;SDS011;69433;48.642;9.142;2024-01-15T11:32:08;4.93;;;2.92;;
80123;SDS011;69433;48.642;9.142;2024-01-15T11:40:36;4.75;;;2.95;;
80123;SDS011;69433;48.642;9.142;2024-01-15T11:43:05;5.43;;;3.05;;
80123;SDS011;69433;48.642;9.142;2024-01-15T11:45:34;5.35;;;3.13;;
80123;SDS011;69433;48.642;9.142;2024-01-15T11:50:46;6.30;;;2.92;;
80123;SDS011;69433;48.642;9.142;2024-01-15T11:56:01;4.38;;;2.40;;
80123;SDS011;69433;48.642;9.142;2024-01-15T11:58:29;5.05;;;2.50;;
80123;SDS011;69433;48.642;9.142;2024-01-15T12:00:54;5.43;;;2.67;;
80123;SDS011;69433;48.642;9.142;2024-01-15T12:03:20;5.15;;;3.25;;
80123;SDS011;69433;48.642;9.142;2024-01-15T12:05:49;3.53;;;2.70;;
80123;SDS011;69433;48.642;9.142;2024-01-15T12:08:31;3.83;;;2.78;;
80123;SDS011;69433;48.642;9.142;2024-01-15T12:10:57;4.15;;;2.50;;
80123;SDS011;69433;48.642;9.142;2024-01-15T12:13:28;5.50;;;2.80;;
80123;SDS011;69433;48.642;9.142;2024-01-15T12:15:54;4.13;;;2.40;;
80123;SDS011;69433;48.642;9.142;2024-01-15T12:18:19;5.40;;;2.90;;
80123;SDS011;69433;48.642;9.142;2024-01-15T12:20:45;4.78;;;3.10;;
80123;SDS011;69433;48.642;9.142;2024-01-15T12:23:16;4.50;;;2.70;;
80123;SDS011;69433;48.642;9.142;2024-01-15T12:28:41;7.07;;;2.70;;
80123;SDS011;69433;48.642;9.142;2024-01-15T12:31:19;4.97;;;2.40;;
80123;SDS011;69433;48.642;9.142;2024-01-15T12:33:57;3.63;;;2.60;;
80123;SDS011;69433;48.642;9.142;2024-01-15T12:41:54;4.68;;;2.80;;
80123;SDS011;69433;48.642;9.142;2024-01-15T12:44:34;4.78;;;2.53;;
80123;SDS011;69433;48.642;9.142;2024-01-15T12:47:05;5.53;;;2.47;;
80123;SDS011;69433;48.642;9.142;2024-01-15T12:49:31;3.80;;;2.28;;
80123;SDS011;69433;48.642;9.142;2024-01-15T13:00:03;4.70;;;2.40;;
80123;SDS011;69433;48.642;9.142;2024-01-15T13:02:40;3.75;;;2.50;;
80123;SDS011;69433;48.642;9.142;2024-01-15T13:05:07;4.50;;;2.42;;
80123;SDS011;69433;48.642;9.142;2024-01-15T13:07:44;3.78;;;2.40;;
80123;SDS011;69433;48.642;9.142;2024-01-15T13:10:09;6.28;;;2.85;;
80123;SDS011;69433;48.642;9.142;2024-01-15T13:12:34;3.90;;;2.42;;
80123;SDS011;69433;48.642;9.142;2024-01-15T13:15:08;5.50;;;2.75;;
80123;SDS011;69433;48.642;9.142;2024-01-15T13:17:45;5.45;;;3.10;;
80123;SDS011;69433;48.642;9.142;2024-01-15T13:20:24;4.30;;;2.50;;
80123;SDS011;69433;48.642;9.142;2024-01-15T13:25:17;4.93;;;2.50;;
80123;SDS011;69433;48.642;9.142;2024-01-15T13:27:48;5.20;;;2.80;;
80123;SDS011;69433;48.642;9.142;2024-01-15T13:30:14;4.28;;;2.50;;
80123;SDS011;69433;48.642;9.142;2024-01-15T13:32:39;4.57;;;2.50;;
80123;SDS011;69433;48.642;9.142;2024-01-15T13:35:12;3.80;;;2.30;;
80123;SDS011;69433;48.642;9.142;2024-01-15T13:37:38;3.70;;;2.25;;
80123;SDS011;69433;48.642;9.142;2024-01-15T13:42:51;9.75;;;2.70;;
80123;SDS011;69433;48.642;9.142;2024-01-15T13:48:11;3.60;;;2.40;;
80123;SDS011;69433;48.642;9.142;2024-01-15T13:50:39;4.32;;;2.17;;
80123;SDS011;69433;48.642;9.142;2024-01-15T13:53:04;3.47;;;2.50;;
80123;SDS011;69433;48.642;9.142;2024-01-15T13:55:29;3.08;;;1.95;;
80123;SDS011;69433;48.642;9.142;2024-01-15T13:57:57;4.32;;;2.47;;
80123;SDS011;69433;48.642;9.142;2024-01-15T14:00:22;3.20;;;2.30;;
80123;SDS011;69433;48.642;9.142;2024-01-15T14:02:48;4.88;;;2.60;;
80123;SDS011;69433;48.642;9.142;2024-01-15T14:05:13;3.30;;;2.40;;
80123;SDS011;69433;48.642;9.142;2024-01-15T14:15:50;3.95;;;2.13;;
80123;SDS011;69433;48.642;9.142;2024-01-15T14:18:18;4.32;;;2.25;;
80123;SDS011;69433;48.642;9.142;2024-01-15T14:20:52;4.57;;;2.25;;
80123;SDS011;69433;48.642;9.142;2024-01-15T14:23:18;3.60;;;2.50;;
80123;SDS011;69433;48.642;9.142;2024-01-15T14:25:44;3.92;;;2.20;;
80123;SDS011;69433;48.642;9.142;2024-01-15T14:28:26;4.13;;;2.10;;
80123;SDS011;69433;48.642;9.142;2024-01-15T14:30:53;3.53;;;2.33;;
80123;SDS011;69433;48.642;9.142;2024-01-15T14:33:20;2.75;;;1.77;;
80123;SDS011;69433;48.642;9.142;2024-01-15T14:35:52;4.05;;;1.92;;
80123;SDS011;69433;48.642;9.142;2024-01-15T14:38:19;4.25;;;2.40;;
80123;SDS011;69433;48.642;9.142;2024-01-15T14:40:47;4.32;;;2.40;;
80123;SDS011;69433;48.642;9.142;2024-01-15T14:43:14;4.85;;;2.47;;
80123;SDS011;69433;48.642;9.142;2024-01-15T14:45:51;3.55;;;2.45;;
80123;SDS011;69433;48.642;9.142;2024-01-15T14:50:50;2.90;;;2.30;;
80123;SDS011;69433;48.642;9.142;2024-01-15T14:53:25;3.85;;;2.90;;
80123;SDS011;69433;48.642;9.142;2024-01-15T14:55:50;3.38;;;2.38;;
80123;SDS011;69433;48.642;9.142;2024-01-15T14:58:15;3.20;;;2.17;;
80123;SDS011;69433;48.642;9.142;2024-01-15T15:00:53;4.18;;;2.20;;
80123;SDS011;69433;48.642;9.142;2024-01-15T15:03:26;3.60;;;1.75;;
80123;SDS011;69433;48.642;9.142;2024-01-15T15:05:52;4.15;;;2.38;;
80123;SDS011;69433;48.642;9.142;2024-01-15T15:08:23;3.20;;;2.20;;
80123;SDS011;69433;48.642;9.142;2024-01-15T15:10:48;2.70;;;1.95;;
80123;SDS011;69433;48.642;9.142;2024-01-15T15:13:13;3.63;;;2.00;;
80123;SDS011;69433;48.642;9.142;2024-01-15T15:15:45;5.60;;;3.25;;
80123;SDS011;69433;48.642;9.142;2024-01-15T15:18:10;25.92;;;12.73;;
80123;SDS011;69433;48.642;9.142;2024-01-15T15:20:38;140.13;;;72.40;;
80123;SDS011;69433;48.642;9.142;2024-01-15T15:23:03;224.60;;;106.53;;
80123;SDS011;69433;48.642;9.142;2024-01-15T15:25:33;245.68;;;116.10;;
80123;SDS011;69433;48.642;9.142;2024-01-15T15:28:00;279.75;;;136.05;;
80123;SDS011;69433;48.642;9.142;2024-01-15T15:30:34;281.17;;;131.27;;
80123;SDS011;69433;48.642;9.142;2024-01-15T15:33:07;280.58;;;135.30;;
80123;SDS011;69433;48.642;9.142;2024-01-15T15:35:45;267.92;;;131.38;;
80123;SDS011;69433;48.642;9.142;2024-01-15T15:38:13;247.40;;;123.75;;
80123;SDS011;69433;48.642;9.142;2024-01-15T15:40:45;244.02;;;114.30;;
80123;SDS011;69433;48.642;9.142;2024-01-15T15:43:12;225.90;;;114.75;;
80123;SDS011;69433;48.642;9.142;2024-01-15T15:45:37;194.52;;;98.68;;
80123;SDS011;69433;48.642;9.142;2024-01-15T15:48:03;160.13;;;79.88;;
80123;SDS011;69433;48.642;9.142;2024-01-15T15:50:38;134.55;;;65.53;;
80123;SDS011;69433;48.642;9.142;2024-01-15T15:53:21;98.22;;;49.20;;
80123;SDS011;69433;48.642;9.142;2024-01-15T15:58:33;58.58;;;28.73;;
80123;SDS011;69433;48.642;9.142;2024-01-15T16:00:59;49.72;;;24.85;;
80123;SDS011;69433;48.642;9.142;2024-01-15T16:03:31;33.08;;;16.65;;
80123;SDS011;69433;48.642;9.142;2024-01-15T16:05:57;26.58;;;14.05;;
80123;SDS011;69433;48.642;9.142;2024-01-15T16:08:26;24.80;;;12.65;;
80123;SDS011;69433;48.642;9.142;2024-01-15T16:10:54;23.40;;;12.88;;
80123;SDS011;69433;48.642;9.142;2024-01-15T16:13:20;24.00;;;11.63;;
80123;SDS011;69433;48.642;9.142;2024-01-15T16:15:45;20.48;;;9.90;;
80123;SDS011;69433;48.642;9.142;2024-01-15T16:18:12;21.95;;;11.20;;
80123;SDS011;69433;48.642;9.142;2024-01-15T16:23:34;19.80;;;10.23;;
80123;SDS011;69433;48.642;9.142;2024-01-15T16:26:09;19.23;;;9.88;;
80123;SDS011;69433;48.642;9.142;2024-01-15T16:28:35;20.00;;;9.43;;
80123;SDS011;69433;48.642;9.142;2024-01-15T16:31:04;21.08;;;9.32;;
80123;SDS011;69433;48.642;9.142;2024-01-15T16:33:32;19.42;;;9.68;;
80123;SDS011;69433;48.642;9.142;2024-01-15T16:36:04;19.42;;;9.30;;
80123;SDS011;69433;48.642;9.142;2024-01-15T16:38:31;18.08;;;9.40;;
80123;SDS011;69433;48.642;9.142;2024-01-15T16:40:58;14.77;;;8.45;;
80123;SDS011;69433;48.642;9.142;2024-01-15T16:43:31;15.23;;;8.13;;
80123;SDS011;69433;48.642;9.142;2024-01-15T16:45:58;15.13;;;7.97;;
80123;SDS011;69433;48.642;9.142;2024-01-15T16:48:23;14.63;;;7.25;;
80123;SDS011;69433;48.642;9.142;2024-01-15T16:50:56;15.60;;;7.43;;
80123;SDS011;69433;48.642;9.142;2024-01-15T16:53:28;16.52;;;7.45;;
80123;SDS011;69433;48.642;9.142;2024-01-15T16:55:56;13.20;;;6.30;;
80123;SDS011;69433;48.642;9.142;2024-01-15T16:58:32;14.77;;;7.32;;
80123;SDS011;69433;48.642;9.142;2024-01-15T17:00:57;18.52;;;7.28;;
80123;SDS011;69433;48.642;9.142;2024-01-15T17:03:28;10.55;;;6.15;;
80123;SDS011;69433;48.642;9.142;2024-01-15T17:08:23;13.88;;;6.18;;
80123;SDS011;69433;48.642;9.142;2024-01-15T17:10:51;12.38;;;6.22;;
80123;SDS011;69433;48.642;9.142;2024-01-15T17:13:17;11.15;;;5.95;;
80123;SDS011;69433;48.642;9.142;2024-01-15T17:15:52;14.65;;;5.93;;
80123;SDS011;69433;48.642;9.142;2024-01-15T17:21:01;13.48;;;6.03;;
80123;SDS011;69433;48.642;9.142;2024-01-15T17:23:28;15.13;;;6.55;;
80123;SDS011;69433;48.642;9.142;2024-01-15T17:25:53;13.13;;;5.95;;
80123;SDS011;69433;48.642;9.142;2024-01-15T17:28:37;13.73;;;6.15;;
80123;SDS011;69433;48.642;9.142;2024-01-15T17:31:03;9.90;;;4.95;;
80123;SDS011;69433;48.642;9.142;2024-01-15T17:33:30;40.20;;;26.10;;
80123;SDS011;69433;48.642;9.142;2024-01-15T17:38:28;37.55;;;24.17;;
80123;SDS011;69433;48.642;9.142;2024-01-15T17:40:54;34.47;;;22.00;;
80123;SDS011;69433;48.642;9.142;2024-01-15T17:43:33;30.67;;;21.05;;
80123;SDS011;69433;48.642;9.142;2024-01-15T17:46:16;26.65;;;20.15;;
80123;SDS011;69433;48.642;9.142;2024-01-15T17:48:43;30.58;;;19.33;;
80123;SDS011;69433;48.642;9.142;2024-01-15T17:51:25;30.05;;;19.85;;
80123;SDS011;69433;48.642;9.142;2024-01-15T17:56:25;27.20;;;18.30;;
80123;SDS011;69433;48.642;9.142;2024-01-15T17:58:52;26.50;;;17.80;;
80123;SDS011;69433;48.642;9.142;2024-01-15T18:01:17;26.10;;;17.75;;
80123;SDS011;69433;48.642;9.142;2024-01-15T18:03:45;25.15;;;17.50;;
80123;SDS011;69433;48.642;9.142;2024-01-15T18:06:13;23.38;;;17.10;;
80123;SDS011;69433;48.642;9.142;2024-01-15T18:08:41;23.40;;;16.85;;
80123;SDS011;69433;48.642;9.142;2024-01-15T18:11:06;23.05;;;16.90;;
80123;SDS011;69433;48.642;9.142;2024-01-15T18:13:33;23.25;;;16.23;;
80123;SDS011;69433;48.642;9.142;2024-01-15T18:16:12;22.63;;;15.40;;
80123;SDS011;69433;48.642;9.142;2024-01-15T18:21:33;21.10;;;14.30;;